sensor_id;sensor_type;location;lat;lon;timestamp;P1;durP1;ratioP1;P2;durP2;ratioP2
75758;SDS011;64371;47.566;19.086;2023-04-25T00:00:03;3.40;;;1.85;;
75758;SDS011;64371;47.566;19.086;2023-04-25T00:03:12;1.93;;;1.50;;
75758;SDS011;64371;47.566;19.086;2023-04-25T00:06:16;2.00;;;1.50;;
75758;SDS011;64371;47.566;19.086;2023-04-25T00:09:19;1.88;;;1.25;;
75758;SDS011;64371;47.566;19.086;2023-04-25T00:12:22;2.50;;;1.40;;
75758;SDS011;64371;47.566;19.086;2023-04-25T00:15:24;2.00;;;1.58;;
75758;SDS011;64371;47.566;19.086;2023-04-25T00:18:26;1.43;;;1.10;;
75758;SDS011;64371;47.566;19.086;2023-04-25T00:21:30;1.60;;;1.27;;
75758;SDS011;64371;47.566;19.086;2023-04-25T00:24:35;3.60;;;1.67;;
75758;SDS011;64371;47.566;19.086;2023-04-25T00:27:38;3.58;;;1.60;;
75758;SDS011;64371;47.566;19.086;2023-04-25T00:30:41;4.63;;;1.77;;
75758;SDS011;64371;47.566;19.086;2023-04-25T00:33:44;2.30;;;1.50;;
75758;SDS011;64371;47.566;19.086;2023-04-25T00:36:47;2.95;;;2.08;;
75758;SDS011;64371;47.566;19.086;2023-04-25T00:39:50;2.92;;;1.90;;
75758;SDS011;64371;47.566;19.086;2023-04-25T00:42:52;3.10;;;1.70;;
75758;SDS011;64371;47.566;19.086;2023-04-25T00:45:55;2.55;;;2.00;;
75758;SDS011;64371;47.566;19.086;2023-04-25T00:48:59;2.40;;;1.80;;
75758;SDS011;64371;47.566;19.086;2023-04-25T00:52:01;2.25;;;1.92;;
75758;SDS011;64371;47.566;19.086;2023-04-25T00:55:04;3.10;;;2.13;;
75758;SDS011;64371;47.566;19.086;2023-04-25T00:58:07;3.00;;;1.95;;
75758;SDS011;64371;47.566;19.086;2023-04-25T01:01:10;2.88;;;2.00;;
75758;SDS011;64371;47.566;19.086;2023-04-25T01:04:13;3.97;;;2.23;;
75758;SDS011;64371;47.566;19.086;2023-04-25T01:07:16;3.40;;;2.50;;
75758;SDS011;64371;47.566;19.086;2023-04-25T01:10:18;3.28;;;2.20;;
75758;SDS011;64371;47.566;19.086;2023-04-25T01:13:21;3.85;;;2.75;;
75758;SDS011;64371;47.566;19.086;2023-04-25T01:16:24;4.68;;;2.40;;
75758;SDS011;64371;47.566;19.086;2023-04-25T01:19:27;3.17;;;2.10;;
75758;SDS011;64371;47.566;19.086;2023-04-25T01:22:29;3.45;;;2.70;;
75758;SDS011;64371;47.566;19.086;2023-04-25T01:25:32;2.67;;;2.05;;
75758;SDS011;64371;47.566;19.086;2023-04-25T01:28:36;4.07;;;2.42;;
75758;SDS011;64371;47.566;19.086;2023-04-25T01:31:38;3.08;;;2.50;;
75758;SDS011;64371;47.566;19.086;2023-04-25T01:34:42;3.97;;;2.73;;
75758;SDS011;64371;47.566;19.086;2023-04-25T01:37:45;4.55;;;2.70;;
75758;SDS011;64371;47.566;19.086;2023-04-25T01:40:47;3.63;;;2.72;;
75758;SDS011;64371;47.566;19.086;2023-04-25T01:43:53;4.35;;;2.60;;
75758;SDS011;64371;47.566;19.086;2023-04-25T01:46:56;4.43;;;2.90;;
75758;SDS011;64371;47.566;19.086;2023-04-25T01:50:01;4.53;;;3.00;;
75758;SDS011;64371;47.566;19.086;2023-04-25T01:53:05;4.22;;;2.97;;
75758;SDS011;64371;47.566;19.086;2023-04-25T01:56:08;5.47;;;2.90;;
75758;SDS011;64371;47.566;19.086;2023-04-25T01:59:10;3.67;;;2.60;;
75758;SDS011;64371;47.566;19.086;2023-04-25T02:02:27;5.70;;;2.88;;
75758;SDS011;64371;47.566;19.086;2023-04-25T02:05:33;3.50;;;2.70;;
75758;SDS011;64371;47.566;19.086;2023-04-25T02:08:39;3.30;;;2.40;;
75758;SDS011;64371;47.566;19.086;2023-04-25T02:11:41;3.83;;;2.50;;
75758;SDS011;64371;47.566;19.086;2023-04-25T02:15:10;3.67;;;2.42;;
75758;SDS011;64371;47.566;19.086;2023-04-25T02:18:22;3.97;;;2.45;;
75758;SDS011;64371;47.566;19.086;2023-04-25T02:21:24;3.00;;;2.43;;
75758;SDS011;64371;47.566;19.086;2023-04-25T02:24:27;2.78;;;2.20;;
75758;SDS011;64371;47.566;19.086;2023-04-25T02:27:31;4.80;;;2.40;;
75758;SDS011;64371;47.566;19.086;2023-04-25T02:30:33;3.95;;;2.58;;
75758;SDS011;64371;47.566;19.086;2023-04-25T02:33:39;3.05;;;2.20;;
75758;SDS011;64371;47.566;19.086;2023-04-25T02:36:41;5.47;;;2.17;;
75758;SDS011;64371;47.566;19.086;2023-04-25T02:39:44;3.20;;;2.20;;
75758;SDS011;64371;47.566;19.086;2023-04-25T02:42:47;2.95;;;1.60;;
75758;SDS011;64371;47.566;19.086;2023-04-25T02:45:49;2.38;;;1.77;;
75758;SDS011;64371;47.566;19.086;2023-04-25T02:48:52;1.88;;;1.50;;
75758;SDS011;64371;47.566;19.086;2023-04-25T02:51:54;1.73;;;1.30;;
75758;SDS011;64371;47.566;19.086;2023-04-25T02:54:57;2.65;;;1.20;;
75758;SDS011;64371;47.566;19.086;2023-04-25T02:58:00;3.33;;;1.55;;
75758;SDS011;64371;47.566;19.086;2023-04-25T03:01:23;1.90;;;1.50;;
75758;SDS011;64371;47.566;19.086;2023-04-25T03:04:25;4.75;;;1.60;;
75758;SDS011;64371;47.566;19.086;2023-04-25T03:07:29;2.63;;;1.50;;
75758;SDS011;64371;47.566;19.086;2023-04-25T03:10:31;2.13;;;1.58;;
75758;SDS011;64371;47.566;19.086;2023-04-25T03:13:38;2.78;;;2.00;;
75758;SDS011;64371;47.566;19.086;2023-04-25T03:16:42;2.90;;;2.50;;
75758;SDS011;64371;47.566;19.086;2023-04-25T03:19:44;3.22;;;2.60;;
75758;SDS011;64371;47.566;19.086;2023-04-25T03:22:46;3.67;;;2.23;;
75758;SDS011;64371;47.566;19.086;2023-04-25T03:25:49;4.18;;;2.83;;
75758;SDS011;64371;47.566;19.086;2023-04-25T03:28:51;4.25;;;2.97;;
75758;SDS011;64371;47.566;19.086;2023-04-25T03:31:54;3.63;;;2.47;;
75758;SDS011;64371;47.566;19.086;2023-04-25T03:34:56;3.63;;;2.28;;
75758;SDS011;64371;47.566;19.086;2023-04-25T03:38:00;4.07;;;2.53;;
75758;SDS011;64371;47.566;19.086;2023-04-25T03:41:07;2.30;;;1.80;;
75758;SDS011;64371;47.566;19.086;2023-04-25T03:44:17;4.13;;;2.30;;
75758;SDS011;64371;47.566;19.086;2023-04-25T03:47:19;4.88;;;2.90;;
75758;SDS011;64371;47.566;19.086;2023-04-25T03:50:23;3.33;;;2.40;;
75758;SDS011;64371;47.566;19.086;2023-04-25T03:53:26;4.20;;;2.53;;
75758;SDS011;64371;47.566;19.086;2023-04-25T03:56:57;3.15;;;2.03;;
75758;SDS011;64371;47.566;19.086;2023-04-25T04:00:02;3.38;;;2.38;;
75758;SDS011;64371;47.566;19.086;2023-04-25T04:03:14;5.70;;;2.88;;
75758;SDS011;64371;47.566;19.086;2023-04-25T04:06:16;7.32;;;3.50;;
75758;SDS011;64371;47.566;19.086;2023-04-25T04:09:23;3.33;;;2.20;;
75758;SDS011;64371;47.566;19.086;2023-04-25T04:12:26;3.40;;;2.45;;
75758;SDS011;64371;47.566;19.086;2023-04-25T04:15:28;4.32;;;2.63;;
75758;SDS011;64371;47.566;19.086;2023-04-25T04:18:31;2.65;;;1.98;;
75758;SDS011;64371;47.566;19.086;2023-04-25T04:21:36;3.53;;;2.67;;
75758;SDS011;64371;47.566;19.086;2023-04-25T04:24:39;3.97;;;2.70;;
75758;SDS011;64371;47.566;19.086;2023-04-25T04:27:42;3.55;;;2.50;;
75758;SDS011;64371;47.566;19.086;2023-04-25T04:31:10;4.32;;;3.20;;
75758;SDS011;64371;47.566;19.086;2023-04-25T04:34:12;5.63;;;4.18;;
75758;SDS011;64371;47.566;19.086;2023-04-25T04:37:15;6.07;;;4.30;;
75758;SDS011;64371;47.566;19.086;2023-04-25T04:40:18;7.00;;;3.50;;
75758;SDS011;64371;47.566;19.086;2023-04-25T04:43:27;4.55;;;3.28;;
75758;SDS011;64371;47.566;19.086;2023-04-25T04:46:41;6.57;;;3.90;;
75758;SDS011;64371;47.566;19.086;2023-04-25T04:49:47;5.88;;;3.05;;
75758;SDS011;64371;47.566;19.086;2023-04-25T04:53:03;4.90;;;2.70;;
75758;SDS011;64371;47.566;19.086;2023-04-25T04:56:26;4.63;;;2.70;;
75758;SDS011;64371;47.566;19.086;2023-04-25T04:59:50;3.88;;;2.63;;
75758;SDS011;64371;47.566;19.086;2023-04-25T05:03:16;3.17;;;2.30;;
75758;SDS011;64371;47.566;19.086;2023-04-25T05:06:36;2.70;;;2.10;;
75758;SDS011;64371;47.566;19.086;2023-04-25T05:09:58;5.18;;;3.08;;
75758;SDS011;64371;47.566;19.086;2023-04-25T05:13:09;4.87;;;3.17;;
75758;SDS011;64371;47.566;19.086;2023-04-25T05:16:31;3.70;;;3.05;;
75758;SDS011;64371;47.566;19.086;2023-04-25T05:19:57;5.35;;;3.78;;
75758;SDS011;64371;47.566;19.086;2023-04-25T05:23:09;5.15;;;3.42;;
75758;SDS011;64371;47.566;19.086;2023-04-25T05:26:31;5.20;;;3.80;;
75758;SDS011;64371;47.566;19.086;2023-04-25T05:30:02;7.00;;;4.07;;
75758;SDS011;64371;47.566;19.086;2023-04-25T05:33:21;4.45;;;3.40;;
75758;SDS011;64371;47.566;19.086;2023-04-25T05:36:24;5.00;;;3.30;;
75758;SDS011;64371;47.566;19.086;2023-04-25T05:39:26;5.47;;;3.38;;
75758;SDS011;64371;47.566;19.086;2023-04-25T05:42:46;4.47;;;2.78;;
75758;SDS011;64371;47.566;19.086;2023-04-25T05:46:17;6.63;;;3.53;;
75758;SDS011;64371;47.566;19.086;2023-04-25T05:49:40;4.78;;;3.10;;
75758;SDS011;64371;47.566;19.086;2023-04-25T05:53:04;4.57;;;3.35;;
75758;SDS011;64371;47.566;19.086;2023-04-25T05:56:14;5.50;;;4.10;;
75758;SDS011;64371;47.566;19.086;2023-04-25T05:59:16;7.05;;;3.70;;
75758;SDS011;64371;47.566;19.086;2023-04-25T06:02:20;6.27;;;4.03;;
75758;SDS011;64371;47.566;19.086;2023-04-25T06:05:24;4.05;;;2.97;;
75758;SDS011;64371;47.566;19.086;2023-04-25T06:08:27;5.10;;;3.28;;
75758;SDS011;64371;47.566;19.086;2023-04-25T06:11:29;7.68;;;4.35;;
75758;SDS011;64371;47.566;19.086;2023-04-25T06:14:32;6.82;;;4.63;;
75758;SDS011;64371;47.566;19.086;2023-04-25T06:17:38;6.77;;;4.47;;
75758;SDS011;64371;47.566;19.086;2023-04-25T06:20:40;9.05;;;4.32;;
75758;SDS011;64371;47.566;19.086;2023-04-25T06:23:43;9.15;;;4.70;;
75758;SDS011;64371;47.566;19.086;2023-04-25T06:26:52;7.80;;;4.65;;
75758;SDS011;64371;47.566;19.086;2023-04-25T06:29:55;6.53;;;4.32;;
75758;SDS011;64371;47.566;19.086;2023-04-25T06:32:57;6.17;;;4.40;;
75758;SDS011;64371;47.566;19.086;2023-04-25T06:36:03;7.45;;;5.32;;
75758;SDS011;64371;47.566;19.086;2023-04-25T06:39:06;6.07;;;4.70;;
75758;SDS011;64371;47.566;19.086;2023-04-25T06:42:09;8.40;;;5.32;;
75758;SDS011;64371;47.566;19.086;2023-04-25T06:45:21;7.13;;;4.60;;
75758;SDS011;64371;47.566;19.086;2023-04-25T06:48:24;6.33;;;4.67;;
75758;SDS011;64371;47.566;19.086;2023-04-25T06:51:29;9.23;;;6.43;;
75758;SDS011;64371;47.566;19.086;2023-04-25T06:54:33;9.82;;;5.50;;
75758;SDS011;64371;47.566;19.086;2023-04-25T06:57:45;6.60;;;3.47;;
75758;SDS011;64371;47.566;19.086;2023-04-25T07:01:08;6.40;;;3.40;;
75758;SDS011;64371;47.566;19.086;2023-04-25T07:04:11;5.03;;;3.30;;
75758;SDS011;64371;47.566;19.086;2023-04-25T07:07:20;7.50;;;2.63;;
75758;SDS011;64371;47.566;19.086;2023-04-25T07:10:29;5.20;;;3.60;;
75758;SDS011;64371;47.566;19.086;2023-04-25T07:13:32;7.18;;;4.95;;
75758;SDS011;64371;47.566;19.086;2023-04-25T07:16:35;9.57;;;7.00;;
75758;SDS011;64371;47.566;19.086;2023-04-25T07:19:37;8.60;;;5.20;;
75758;SDS011;64371;47.566;19.086;2023-04-25T07:22:43;6.45;;;4.72;;
75758;SDS011;64371;47.566;19.086;2023-04-25T07:25:46;7.25;;;5.55;;
75758;SDS011;64371;47.566;19.086;2023-04-25T07:28:53;8.90;;;6.35;;
75758;SDS011;64371;47.566;19.086;2023-04-25T07:31:56;6.15;;;4.05;;
75758;SDS011;64371;47.566;19.086;2023-04-25T07:34:59;5.60;;;3.47;;
75758;SDS011;64371;47.566;19.086;2023-04-25T07:38:02;19.80;;;9.05;;
75758;SDS011;64371;47.566;19.086;2023-04-25T07:41:05;10.20;;;6.47;;
75758;SDS011;64371;47.566;19.086;2023-04-25T07:44:07;5.95;;;4.28;;
75758;SDS011;64371;47.566;19.086;2023-04-25T07:47:10;5.53;;;4.55;;
75758;SDS011;64371;47.566;19.086;2023-04-25T07:50:13;8.13;;;4.53;;
75758;SDS011;64371;47.566;19.086;2023-04-25T07:53:16;9.70;;;7.55;;
75758;SDS011;64371;47.566;19.086;2023-04-25T07:56:30;6.13;;;4.68;;
75758;SDS011;64371;47.566;19.086;2023-04-25T07:59:52;7.43;;;5.53;;
75758;SDS011;64371;47.566;19.086;2023-04-25T08:02:56;5.47;;;4.43;;
75758;SDS011;64371;47.566;19.086;2023-04-25T08:05:59;5.93;;;5.33;;
75758;SDS011;64371;47.566;19.086;2023-04-25T08:09:10;4.88;;;4.03;;
75758;SDS011;64371;47.566;19.086;2023-04-25T08:12:15;3.47;;;3.03;;
75758;SDS011;64371;47.566;19.086;2023-04-25T08:15:18;4.22;;;3.40;;
75758;SDS011;64371;47.566;19.086;2023-04-25T08:18:21;4.07;;;3.30;;
75758;SDS011;64371;47.566;19.086;2023-04-25T08:21:25;3.33;;;2.73;;
75758;SDS011;64371;47.566;19.086;2023-04-25T08:24:31;3.30;;;2.75;;
75758;SDS011;64371;47.566;19.086;2023-04-25T08:27:33;4.45;;;2.80;;
75758;SDS011;64371;47.566;19.086;2023-04-25T08:30:36;3.95;;;2.67;;
75758;SDS011;64371;47.566;19.086;2023-04-25T08:33:40;4.15;;;2.70;;
75758;SDS011;64371;47.566;19.086;2023-04-25T08:37:06;3.43;;;2.57;;
75758;SDS011;64371;47.566;19.086;2023-04-25T08:40:23;2.67;;;2.33;;
75758;SDS011;64371;47.566;19.086;2023-04-25T08:43:37;3.13;;;2.50;;
75758;SDS011;64371;47.566;19.086;2023-04-25T08:46:43;2.13;;;1.70;;
75758;SDS011;64371;47.566;19.086;2023-04-25T08:50:02;4.65;;;2.60;;
75758;SDS011;64371;47.566;19.086;2023-04-25T08:53:06;4.33;;;3.17;;
75758;SDS011;64371;47.566;19.086;2023-04-25T08:56:12;4.78;;;3.22;;
75758;SDS011;64371;47.566;19.086;2023-04-25T08:59:19;2.70;;;2.38;;
75758;SDS011;64371;47.566;19.086;2023-04-25T09:02:22;3.92;;;3.10;;
75758;SDS011;64371;47.566;19.086;2023-04-25T09:05:28;5.18;;;3.33;;
75758;SDS011;64371;47.566;19.086;2023-04-25T09:08:30;4.20;;;3.80;;
75758;SDS011;64371;47.566;19.086;2023-04-25T09:11:33;2.97;;;2.60;;
75758;SDS011;64371;47.566;19.086;2023-04-25T09:14:43;4.10;;;2.40;;
75758;SDS011;64371;47.566;19.086;2023-04-25T09:18:29;5.38;;;2.08;;
75758;SDS011;64371;47.566;19.086;2023-04-25T09:21:35;2.88;;;2.10;;
75758;SDS011;64371;47.566;19.086;2023-04-25T09:24:40;5.83;;;2.77;;
75758;SDS011;64371;47.566;19.086;2023-04-25T09:27:49;3.80;;;2.40;;
75758;SDS011;64371;47.566;19.086;2023-04-25T09:31:03;3.40;;;2.80;;
75758;SDS011;64371;47.566;19.086;2023-04-25T09:34:19;2.40;;;2.20;;
75758;SDS011;64371;47.566;19.086;2023-04-25T09:37:29;2.63;;;2.22;;
75758;SDS011;64371;47.566;19.086;2023-04-25T09:40:51;4.53;;;2.50;;
75758;SDS011;64371;47.566;19.086;2023-04-25T09:44:02;2.83;;;2.00;;
75758;SDS011;64371;47.566;19.086;2023-04-25T09:47:10;4.15;;;2.00;;
75758;SDS011;64371;47.566;19.086;2023-04-25T09:50:16;1.70;;;1.60;;
75758;SDS011;64371;47.566;19.086;2023-04-25T09:53:23;1.92;;;1.73;;
75758;SDS011;64371;47.566;19.086;2023-04-25T09:56:41;2.30;;;1.50;;
75758;SDS011;64371;47.566;19.086;2023-04-25T09:59:45;1.90;;;1.70;;
75758;SDS011;64371;47.566;19.086;2023-04-25T10:02:52;1.35;;;1.15;;
75758;SDS011;64371;47.566;19.086;2023-04-25T10:06:22;1.60;;;1.20;;
75758;SDS011;64371;47.566;19.086;2023-04-25T10:09:29;2.03;;;1.70;;
75758;SDS011;64371;47.566;19.086;2023-04-25T10:12:35;2.07;;;1.60;;
75758;SDS011;64371;47.566;19.086;2023-04-25T10:15:38;1.75;;;1.40;;
75758;SDS011;64371;47.566;19.086;2023-04-25T10:18:41;1.95;;;1.65;;
75758;SDS011;64371;47.566;19.086;2023-04-25T10:21:48;1.30;;;1.15;;
75758;SDS011;64371;47.566;19.086;2023-04-25T10:24:54;2.00;;;1.52;;
75758;SDS011;64371;47.566;19.086;2023-04-25T10:27:59;1.90;;;1.10;;
75758;SDS011;64371;47.566;19.086;2023-04-25T10:31:02;0.85;;;0.77;;
75758;SDS011;64371;47.566;19.086;2023-04-25T10:34:06;1.15;;;0.90;;
75758;SDS011;64371;47.566;19.086;2023-04-25T10:37:11;0.98;;;0.73;;
75758;SDS011;64371;47.566;19.086;2023-04-25T10:40:14;0.63;;;0.55;;
75758;SDS011;64371;47.566;19.086;2023-04-25T10:43:45;1.10;;;0.70;;
75758;SDS011;64371;47.566;19.086;2023-04-25T10:46:47;1.30;;;0.90;;
75758;SDS011;64371;47.566;19.086;2023-04-25T10:49:49;0.80;;;0.70;;
75758;SDS011;64371;47.566;19.086;2023-04-25T10:52:52;1.02;;;0.80;;
75758;SDS011;64371;47.566;19.086;2023-04-25T10:55:55;1.00;;;0.80;;
75758;SDS011;64371;47.566;19.086;2023-04-25T11:02:27;0.60;;;0.60;;
75758;SDS011;64371;47.566;19.086;2023-04-25T11:05:31;2.03;;;1.10;;
75758;SDS011;64371;47.566;19.086;2023-04-25T11:08:47;0.70;;;0.60;;
75758;SDS011;64371;47.566;19.086;2023-04-25T11:11:53;0.50;;;0.40;;
75758;SDS011;64371;47.566;19.086;2023-04-25T11:15:00;1.33;;;0.50;;
75758;SDS011;64371;47.566;19.086;2023-04-25T11:18:03;0.77;;;0.50;;
75758;SDS011;64371;47.566;19.086;2023-04-25T11:21:06;0.82;;;0.60;;
75758;SDS011;64371;47.566;19.086;2023-04-25T11:24:08;0.70;;;0.50;;
75758;SDS011;64371;47.566;19.086;2023-04-25T11:27:11;1.20;;;0.32;;
75758;SDS011;64371;47.566;19.086;2023-04-25T11:30:14;0.33;;;0.33;;
75758;SDS011;64371;47.566;19.086;2023-04-25T11:33:18;1.02;;;0.40;;
75758;SDS011;64371;47.566;19.086;2023-04-25T11:36:24;0.28;;;0.20;;
75758;SDS011;64371;47.566;19.086;2023-04-25T11:39:28;0.70;;;0.40;;
75758;SDS011;64371;47.566;19.086;2023-04-25T11:42:30;0.30;;;0.30;;
75758;SDS011;64371;47.566;19.086;2023-04-25T11:45:33;1.30;;;0.60;;
75758;SDS011;64371;47.566;19.086;2023-04-25T11:48:41;0.80;;;0.40;;
75758;SDS011;64371;47.566;19.086;2023-04-25T11:51:45;0.68;;;0.57;;
75758;SDS011;64371;47.566;19.086;2023-04-25T11:54:49;0.22;;;0.20;;
75758;SDS011;64371;47.566;19.086;2023-04-25T11:57:52;0.45;;;0.25;;
75758;SDS011;64371;47.566;19.086;2023-04-25T12:00:54;2.00;;;0.33;;
75758;SDS011;64371;47.566;19.086;2023-04-25T12:04:14;0.50;;;0.30;;
75758;SDS011;64371;47.566;19.086;2023-04-25T12:07:18;0.60;;;0.20;;
75758;SDS011;64371;47.566;19.086;2023-04-25T12:10:24;0.65;;;0.30;;
75758;SDS011;64371;47.566;19.086;2023-04-25T12:13:27;0.73;;;0.40;;
75758;SDS011;64371;47.566;19.086;2023-04-25T12:16:39;1.53;;;0.50;;
75758;SDS011;64371;47.566;19.086;2023-04-25T12:19:46;0.45;;;0.28;;
75758;SDS011;64371;47.566;19.086;2023-04-25T12:22:49;0.57;;;0.50;;
75758;SDS011;64371;47.566;19.086;2023-04-25T12:25:52;0.95;;;0.50;;
75758;SDS011;64371;47.566;19.086;2023-04-25T12:28:55;1.02;;;0.50;;
75758;SDS011;64371;47.566;19.086;2023-04-25T12:31:57;1.03;;;0.90;;
75758;SDS011;64371;47.566;19.086;2023-04-25T12:35:00;1.52;;;0.80;;
75758;SDS011;64371;47.566;19.086;2023-04-25T12:38:03;0.60;;;0.60;;
75758;SDS011;64371;47.566;19.086;2023-04-25T12:41:06;1.63;;;0.73;;
75758;SDS011;64371;47.566;19.086;2023-04-25T12:44:09;2.42;;;0.95;;
75758;SDS011;64371;47.566;19.086;2023-04-25T12:47:11;3.60;;;1.13;;
75758;SDS011;64371;47.566;19.086;2023-04-25T12:50:14;1.17;;;0.77;;
75758;SDS011;64371;47.566;19.086;2023-04-25T12:53:17;2.00;;;0.60;;
75758;SDS011;64371;47.566;19.086;2023-04-25T12:56:20;1.00;;;0.70;;
75758;SDS011;64371;47.566;19.086;2023-04-25T12:59:26;0.68;;;0.57;;
75758;SDS011;64371;47.566;19.086;2023-04-25T13:02:28;2.33;;;1.30;;
75758;SDS011;64371;47.566;19.086;2023-04-25T13:05:31;2.05;;;1.17;;
75758;SDS011;64371;47.566;19.086;2023-04-25T13:08:34;1.17;;;0.80;;
75758;SDS011;64371;47.566;19.086;2023-04-25T13:11:38;1.33;;;0.60;;
75758;SDS011;64371;47.566;19.086;2023-04-25T13:14:41;0.77;;;0.60;;
75758;SDS011;64371;47.566;19.086;2023-04-25T13:17:43;0.80;;;0.80;;
75758;SDS011;64371;47.566;19.086;2023-04-25T13:20:45;1.85;;;1.00;;
75758;SDS011;64371;47.566;19.086;2023-04-25T13:23:48;1.67;;;0.77;;
75758;SDS011;64371;47.566;19.086;2023-04-25T13:26:51;1.05;;;0.85;;
75758;SDS011;64371;47.566;19.086;2023-04-25T13:29:53;1.23;;;0.85;;
75758;SDS011;64371;47.566;19.086;2023-04-25T13:32:55;1.17;;;0.80;;
75758;SDS011;64371;47.566;19.086;2023-04-25T13:36:00;1.77;;;0.95;;
75758;SDS011;64371;47.566;19.086;2023-04-25T13:39:03;2.75;;;1.00;;
75758;SDS011;64371;47.566;19.086;2023-04-25T13:42:06;2.08;;;0.90;;
75758;SDS011;64371;47.566;19.086;2023-04-25T13:45:09;1.20;;;0.65;;
75758;SDS011;64371;47.566;19.086;2023-04-25T13:48:13;1.20;;;1.00;;
75758;SDS011;64371;47.566;19.086;2023-04-25T13:51:15;2.97;;;1.00;;
75758;SDS011;64371;47.566;19.086;2023-04-25T13:54:19;1.55;;;0.80;;
75758;SDS011;64371;47.566;19.086;2023-04-25T13:57:21;1.77;;;1.00;;
75758;SDS011;64371;47.566;19.086;2023-04-25T14:00:24;1.45;;;0.70;;
75758;SDS011;64371;47.566;19.086;2023-04-25T14:03:26;2.10;;;1.00;;
75758;SDS011;64371;47.566;19.086;2023-04-25T14:06:29;5.18;;;1.10;;
75758;SDS011;64371;47.566;19.086;2023-04-25T14:09:33;1.42;;;1.30;;
75758;SDS011;64371;47.566;19.086;2023-04-25T14:12:36;1.73;;;1.40;;
75758;SDS011;64371;47.566;19.086;2023-04-25T14:15:38;1.42;;;1.00;;
75758;SDS011;64371;47.566;19.086;2023-04-25T14:18:41;1.63;;;1.10;;
75758;SDS011;64371;47.566;19.086;2023-04-25T14:21:43;1.45;;;1.25;;
75758;SDS011;64371;47.566;19.086;2023-04-25T14:24:46;1.15;;;1.05;;
75758;SDS011;64371;47.566;19.086;2023-04-25T14:27:48;1.33;;;1.13;;
75758;SDS011;64371;47.566;19.086;2023-04-25T14:30:54;2.13;;;1.10;;
75758;SDS011;64371;47.566;19.086;2023-04-25T14:33:56;1.57;;;1.23;;
75758;SDS011;64371;47.566;19.086;2023-04-25T14:37:00;4.20;;;1.55;;
75758;SDS011;64371;47.566;19.086;2023-04-25T14:40:03;2.65;;;1.02;;
75758;SDS011;64371;47.566;19.086;2023-04-25T14:43:07;2.15;;;1.10;;
75758;SDS011;64371;47.566;19.086;2023-04-25T14:46:09;1.10;;;0.90;;
75758;SDS011;64371;47.566;19.086;2023-04-25T14:49:13;1.17;;;0.97;;
75758;SDS011;64371;47.566;19.086;2023-04-25T14:52:15;1.67;;;0.90;;
75758;SDS011;64371;47.566;19.086;2023-04-25T14:55:18;1.40;;;1.00;;
75758;SDS011;64371;47.566;19.086;2023-04-25T14:58:20;1.40;;;1.20;;
75758;SDS011;64371;47.566;19.086;2023-04-25T15:01:23;1.88;;;1.40;;
75758;SDS011;64371;47.566;19.086;2023-04-25T15:04:26;2.47;;;1.00;;
75758;SDS011;64371;47.566;19.086;2023-04-25T15:07:29;1.58;;;1.08;;
75758;SDS011;64371;47.566;19.086;2023-04-25T15:10:31;1.70;;;1.00;;
75758;SDS011;64371;47.566;19.086;2023-04-25T15:13:35;1.48;;;1.20;;
75758;SDS011;64371;47.566;19.086;2023-04-25T15:16:38;3.58;;;1.08;;
75758;SDS011;64371;47.566;19.086;2023-04-25T15:19:41;1.60;;;1.00;;
75758;SDS011;64371;47.566;19.086;2023-04-25T15:22:43;1.42;;;1.15;;
75758;SDS011;64371;47.566;19.086;2023-04-25T15:25:50;1.40;;;1.10;;
75758;SDS011;64371;47.566;19.086;2023-04-25T15:28:54;1.77;;;1.08;;
75758;SDS011;64371;47.566;19.086;2023-04-25T15:31:57;2.03;;;1.33;;
75758;SDS011;64371;47.566;19.086;2023-04-25T15:35:01;1.17;;;1.07;;
75758;SDS011;64371;47.566;19.086;2023-04-25T15:38:08;1.73;;;1.30;;
75758;SDS011;64371;47.566;19.086;2023-04-25T15:41:12;1.55;;;1.25;;
75758;SDS011;64371;47.566;19.086;2023-04-25T15:44:14;3.13;;;1.40;;
75758;SDS011;64371;47.566;19.086;2023-04-25T15:47:17;1.85;;;1.63;;
75758;SDS011;64371;47.566;19.086;2023-04-25T15:50:19;2.07;;;1.17;;
75758;SDS011;64371;47.566;19.086;2023-04-25T15:53:22;1.20;;;0.88;;
75758;SDS011;64371;47.566;19.086;2023-04-25T15:56:24;2.45;;;1.60;;
75758;SDS011;64371;47.566;19.086;2023-04-25T15:59:27;3.55;;;1.70;;
75758;SDS011;64371;47.566;19.086;2023-04-25T16:02:29;7.00;;;2.33;;
75758;SDS011;64371;47.566;19.086;2023-04-25T16:05:32;5.10;;;2.87;;
75758;SDS011;64371;47.566;19.086;2023-04-25T16:08:35;4.93;;;2.20;;
75758;SDS011;64371;47.566;19.086;2023-04-25T16:11:39;3.40;;;2.60;;
75758;SDS011;64371;47.566;19.086;2023-04-25T16:14:42;3.22;;;2.40;;
75758;SDS011;64371;47.566;19.086;2023-04-25T16:17:45;3.65;;;2.53;;
75758;SDS011;64371;47.566;19.086;2023-04-25T16:20:47;5.10;;;2.53;;
75758;SDS011;64371;47.566;19.086;2023-04-25T16:23:49;3.08;;;2.42;;
75758;SDS011;64371;47.566;19.086;2023-04-25T16:26:52;3.38;;;2.58;;
75758;SDS011;64371;47.566;19.086;2023-04-25T16:29:55;4.47;;;3.00;;
75758;SDS011;64371;47.566;19.086;2023-04-25T16:32:58;4.95;;;3.85;;
75758;SDS011;64371;47.566;19.086;2023-04-25T16:36:01;5.10;;;2.60;;
75758;SDS011;64371;47.566;19.086;2023-04-25T16:39:03;4.85;;;2.70;;
75758;SDS011;64371;47.566;19.086;2023-04-25T16:42:09;4.85;;;2.53;;
75758;SDS011;64371;47.566;19.086;2023-04-25T16:45:12;3.92;;;2.45;;
75758;SDS011;64371;47.566;19.086;2023-04-25T16:48:15;5.68;;;2.80;;
75758;SDS011;64371;47.566;19.086;2023-04-25T16:51:20;4.63;;;2.97;;
75758;SDS011;64371;47.566;19.086;2023-04-25T16:54:22;5.07;;;3.22;;
75758;SDS011;64371;47.566;19.086;2023-04-25T16:57:26;4.18;;;2.80;;
75758;SDS011;64371;47.566;19.086;2023-04-25T17:00:28;4.70;;;2.70;;
75758;SDS011;64371;47.566;19.086;2023-04-25T17:03:31;5.85;;;2.83;;
75758;SDS011;64371;47.566;19.086;2023-04-25T17:06:36;4.17;;;2.83;;
75758;SDS011;64371;47.566;19.086;2023-04-25T17:09:38;5.50;;;3.10;;
75758;SDS011;64371;47.566;19.086;2023-04-25T17:12:41;4.47;;;3.00;;
75758;SDS011;64371;47.566;19.086;2023-04-25T17:15:44;4.03;;;2.90;;
75758;SDS011;64371;47.566;19.086;2023-04-25T17:18:46;4.22;;;3.22;;
75758;SDS011;64371;47.566;19.086;2023-04-25T17:21:49;4.50;;;2.80;;
75758;SDS011;64371;47.566;19.086;2023-04-25T17:24:51;5.72;;;3.20;;
75758;SDS011;64371;47.566;19.086;2023-04-25T17:27:55;3.67;;;2.25;;
75758;SDS011;64371;47.566;19.086;2023-04-25T17:30:57;4.15;;;2.30;;
75758;SDS011;64371;47.566;19.086;2023-04-25T17:33:59;3.70;;;2.60;;
75758;SDS011;64371;47.566;19.086;2023-04-25T17:37:02;3.70;;;2.60;;
75758;SDS011;64371;47.566;19.086;2023-04-25T17:40:04;4.80;;;2.78;;
75758;SDS011;64371;47.566;19.086;2023-04-25T17:43:09;4.15;;;2.50;;
75758;SDS011;64371;47.566;19.086;2023-04-25T17:46:12;4.30;;;2.20;;
75758;SDS011;64371;47.566;19.086;2023-04-25T17:49:14;5.85;;;4.07;;
75758;SDS011;64371;47.566;19.086;2023-04-25T17:52:16;4.00;;;2.50;;
75758;SDS011;64371;47.566;19.086;2023-04-25T17:55:19;3.53;;;2.42;;
75758;SDS011;64371;47.566;19.086;2023-04-25T17:58:21;3.75;;;2.50;;
75758;SDS011;64371;47.566;19.086;2023-04-25T18:01:24;3.60;;;2.65;;
75758;SDS011;64371;47.566;19.086;2023-04-25T18:04:26;2.72;;;2.22;;
75758;SDS011;64371;47.566;19.086;2023-04-25T18:07:29;3.53;;;2.43;;
75758;SDS011;64371;47.566;19.086;2023-04-25T18:10:31;4.25;;;2.90;;
75758;SDS011;64371;47.566;19.086;2023-04-25T18:13:35;3.97;;;2.90;;
75758;SDS011;64371;47.566;19.086;2023-04-25T18:16:38;3.47;;;2.22;;
75758;SDS011;64371;47.566;19.086;2023-04-25T18:19:47;3.95;;;2.30;;
75758;SDS011;64371;47.566;19.086;2023-04-25T18:22:51;3.43;;;2.47;;